sensor_id;sensor_type;location;lat;lon;timestamp;P1;durP1;ratioP1;P2;durP2;ratioP2
32032;SDS011;31720;52.638;9.216;2023-04-01T00:00:17;2.53;;;1.20;;
32032;SDS011;31720;52.638;9.216;2023-04-01T00:03:21;1.95;;;1.00;;
32032;SDS011;31720;52.638;9.216;2023-04-01T00:06:23;1.83;;;1.10;;
32032;SDS011;31720;52.638;9.216;2023-04-01T00:09:24;2.88;;;1.40;;
32032;SDS011;31720;52.638;9.216;2023-04-01T00:12:26;5.97;;;2.22;;
32032;SDS011;31720;52.638;9.216;2023-04-01T00:15:27;2.25;;;1.00;;
32032;SDS011;31720;52.638;9.216;2023-04-01T00:18:30;3.42;;;1.55;;
32032;SDS011;31720;52.638;9.216;2023-04-01T00:21:31;1.52;;;1.00;;
32032;SDS011;31720;52.638;9.216;2023-04-01T00:24:32;2.60;;;1.70;;
32032;SDS011;31720;52.638;9.216;2023-04-01T00:27:34;1.55;;;0.88;;
32032;SDS011;31720;52.638;9.216;2023-04-01T00:30:35;1.65;;;0.93;;
32032;SDS011;31720;52.638;9.216;2023-04-01T00:33:38;2.03;;;1.02;;
32032;SDS011;31720;52.638;9.216;2023-04-01T00:36:40;1.88;;;0.60;;
32032;SDS011;31720;52.638;9.216;2023-04-01T00:39:42;1.70;;;0.90;;
32032;SDS011;31720;52.638;9.216;2023-04-01T00:42:44;3.08;;;0.77;;
32032;SDS011;31720;52.638;9.216;2023-04-01T00:45:46;1.10;;;0.85;;
32032;SDS011;31720;52.638;9.216;2023-04-01T00:48:51;1.65;;;0.82;;
32032;SDS011;31720;52.638;9.216;2023-04-01T00:51:55;1.05;;;0.90;;
32032;SDS011;31720;52.638;9.216;2023-04-01T00:55:00;0.60;;;0.60;;
32032;SDS011;31720;52.638;9.216;2023-04-01T00:58:07;2.72;;;1.10;;
32032;SDS011;31720;52.638;9.216;2023-04-01T01:01:14;1.73;;;0.80;;
32032;SDS011;31720;52.638;9.216;2023-04-01T01:04:25;0.90;;;0.70;;
32032;SDS011;31720;52.638;9.216;2023-04-01T01:07:29;1.00;;;0.73;;
32032;SDS011;31720;52.638;9.216;2023-04-01T01:10:40;0.60;;;0.60;;
32032;SDS011;31720;52.638;9.216;2023-04-01T01:13:48;3.67;;;0.85;;
32032;SDS011;31720;52.638;9.216;2023-04-01T01:16:58;2.38;;;0.93;;
32032;SDS011;31720;52.638;9.216;2023-04-01T01:20:17;0.90;;;0.80;;
32032;SDS011;31720;52.638;9.216;2023-04-01T01:27:10;2.85;;;0.98;;
32032;SDS011;31720;52.638;9.216;2023-04-01T01:30:20;4.22;;;1.05;;
32032;SDS011;31720;52.638;9.216;2023-04-01T01:33:35;0.75;;;0.70;;
32032;SDS011;31720;52.638;9.216;2023-04-01T01:36:48;1.20;;;0.82;;
32032;SDS011;31720;52.638;9.216;2023-04-01T01:39:56;0.60;;;0.60;;
32032;SDS011;31720;52.638;9.216;2023-04-01T01:43:03;1.38;;;0.85;;
32032;SDS011;31720;52.638;9.216;2023-04-01T01:46:08;2.42;;;0.98;;
32032;SDS011;31720;52.638;9.216;2023-04-01T01:49:12;3.88;;;1.00;;
32032;SDS011;31720;52.638;9.216;2023-04-01T01:52:17;0.70;;;0.60;;
32032;SDS011;31720;52.638;9.216;2023-04-01T01:55:23;1.23;;;0.93;;
32032;SDS011;31720;52.638;9.216;2023-04-01T01:58:27;0.80;;;0.70;;
32032;SDS011;31720;52.638;9.216;2023-04-01T02:01:32;0.73;;;0.73;;
32032;SDS011;31720;52.638;9.216;2023-04-01T02:04:37;1.73;;;1.15;;
32032;SDS011;31720;52.638;9.216;2023-04-01T02:07:42;1.55;;;0.95;;
32032;SDS011;31720;52.638;9.216;2023-04-01T02:10:49;1.35;;;0.90;;
32032;SDS011;31720;52.638;9.216;2023-04-01T02:13:58;0.50;;;0.50;;
32032;SDS011;31720;52.638;9.216;2023-04-01T02:17:04;2.25;;;0.90;;
32032;SDS011;31720;52.638;9.216;2023-04-01T02:20:11;0.80;;;0.80;;
32032;SDS011;31720;52.638;9.216;2023-04-01T02:23:17;2.63;;;0.75;;
32032;SDS011;31720;52.638;9.216;2023-04-01T02:26:19;5.28;;;1.38;;
32032;SDS011;31720;52.638;9.216;2023-04-01T02:29:22;1.83;;;0.90;;
32032;SDS011;31720;52.638;9.216;2023-04-01T02:32:26;1.35;;;1.08;;
32032;SDS011;31720;52.638;9.216;2023-04-01T02:35:28;1.30;;;0.90;;
32032;SDS011;31720;52.638;9.216;2023-04-01T02:38:31;1.52;;;0.80;;
32032;SDS011;31720;52.638;9.216;2023-04-01T02:41:38;2.03;;;1.17;;
32032;SDS011;31720;52.638;9.216;2023-04-01T02:44:40;1.08;;;0.95;;
32032;SDS011;31720;52.638;9.216;2023-04-01T02:47:41;2.20;;;0.80;;
32032;SDS011;31720;52.638;9.216;2023-04-01T02:50:42;0.52;;;0.52;;
32032;SDS011;31720;52.638;9.216;2023-04-01T02:53:48;0.70;;;0.68;;
32032;SDS011;31720;52.638;9.216;2023-04-01T02:56:50;0.60;;;0.50;;
32032;SDS011;31720;52.638;9.216;2023-04-01T02:59:51;2.83;;;0.60;;
32032;SDS011;31720;52.638;9.216;2023-04-01T03:02:52;1.08;;;0.70;;
32032;SDS011;31720;52.638;9.216;2023-04-01T03:05:54;1.15;;;0.82;;
32032;SDS011;31720;52.638;9.216;2023-04-01T03:08:57;2.45;;;0.80;;
32032;SDS011;31720;52.638;9.216;2023-04-01T03:11:58;0.47;;;0.47;;
32032;SDS011;31720;52.638;9.216;2023-04-01T03:15:00;1.83;;;0.70;;
32032;SDS011;31720;52.638;9.216;2023-04-01T03:18:01;1.80;;;0.50;;
32032;SDS011;31720;52.638;9.216;2023-04-01T03:21:12;1.40;;;0.65;;
32032;SDS011;31720;52.638;9.216;2023-04-01T03:24:19;0.68;;;0.68;;
32032;SDS011;31720;52.638;9.216;2023-04-01T03:27:20;0.68;;;0.50;;
32032;SDS011;31720;52.638;9.216;2023-04-01T03:30:23;0.40;;;0.40;;
32032;SDS011;31720;52.638;9.216;2023-04-01T03:33:24;0.73;;;0.52;;
32032;SDS011;31720;52.638;9.216;2023-04-01T03:36:25;3.95;;;0.60;;
32032;SDS011;31720;52.638;9.216;2023-04-01T03:39:28;0.50;;;0.50;;
32032;SDS011;31720;52.638;9.216;2023-04-01T03:42:30;0.65;;;0.60;;
32032;SDS011;31720;52.638;9.216;2023-04-01T03:45:32;0.50;;;0.50;;
32032;SDS011;31720;52.638;9.216;2023-04-01T03:48:33;0.93;;;0.60;;
32032;SDS011;31720;52.638;9.216;2023-04-01T03:51:35;0.50;;;0.50;;
32032;SDS011;31720;52.638;9.216;2023-04-01T03:54:37;0.73;;;0.50;;
32032;SDS011;31720;52.638;9.216;2023-04-01T03:57:39;0.45;;;0.45;;
32032;SDS011;31720;52.638;9.216;2023-04-01T04:00:40;2.30;;;0.57;;
32032;SDS011;31720;52.638;9.216;2023-04-01T04:03:42;0.65;;;0.65;;
32032;SDS011;31720;52.638;9.216;2023-04-01T04:06:44;1.48;;;0.70;;
32032;SDS011;31720;52.638;9.216;2023-04-01T04:09:46;2.00;;;0.63;;
32032;SDS011;31720;52.638;9.216;2023-04-01T04:12:48;1.75;;;0.50;;
32032;SDS011;31720;52.638;9.216;2023-04-01T04:15:50;0.88;;;0.45;;
32032;SDS011;31720;52.638;9.216;2023-04-01T04:18:51;0.50;;;0.50;;
32032;SDS011;31720;52.638;9.216;2023-04-01T04:21:53;0.45;;;0.45;;
32032;SDS011;31720;52.638;9.216;2023-04-01T04:24:56;0.38;;;0.38;;
32032;SDS011;31720;52.638;9.216;2023-04-01T04:27:57;0.47;;;0.30;;
32032;SDS011;31720;52.638;9.216;2023-04-01T04:30:58;0.73;;;0.68;;
32032;SDS011;31720;52.638;9.216;2023-04-01T04:34:00;0.40;;;0.38;;
32032;SDS011;31720;52.638;9.216;2023-04-01T04:37:02;0.85;;;0.50;;
32032;SDS011;31720;52.638;9.216;2023-04-01T04:40:06;0.65;;;0.60;;
32032;SDS011;31720;52.638;9.216;2023-04-01T04:43:09;0.95;;;0.70;;
32032;SDS011;31720;52.638;9.216;2023-04-01T04:46:12;0.75;;;0.50;;
32032;SDS011;31720;52.638;9.216;2023-04-01T04:49:13;0.47;;;0.40;;
32032;SDS011;31720;52.638;9.216;2023-04-01T04:52:14;0.88;;;0.52;;
32032;SDS011;31720;52.638;9.216;2023-04-01T04:55:17;0.80;;;0.50;;
32032;SDS011;31720;52.638;9.216;2023-04-01T04:58:18;1.08;;;0.63;;
32032;SDS011;31720;52.638;9.216;2023-04-01T05:01:20;1.50;;;0.80;;
32032;SDS011;31720;52.638;9.216;2023-04-01T05:04:23;0.85;;;0.55;;
32032;SDS011;31720;52.638;9.216;2023-04-01T05:07:24;0.50;;;0.40;;
32032;SDS011;31720;52.638;9.216;2023-04-01T05:10:27;0.43;;;0.40;;
32032;SDS011;31720;52.638;9.216;2023-04-01T05:13:28;0.50;;;0.50;;
32032;SDS011;31720;52.638;9.216;2023-04-01T05:16:30;0.55;;;0.52;;
32032;SDS011;31720;52.638;9.216;2023-04-01T05:19:31;1.00;;;0.40;;
32032;SDS011;31720;52.638;9.216;2023-04-01T05:22:33;2.88;;;0.50;;
32032;SDS011;31720;52.638;9.216;2023-04-01T05:25:38;3.35;;;0.45;;
32032;SDS011;31720;52.638;9.216;2023-04-01T05:28:39;0.43;;;0.40;;
32032;SDS011;31720;52.638;9.216;2023-04-01T05:31:41;0.93;;;0.88;;
32032;SDS011;31720;52.638;9.216;2023-04-01T05:34:43;4.78;;;0.40;;
32032;SDS011;31720;52.638;9.216;2023-04-01T05:37:44;0.40;;;0.40;;
32032;SDS011;31720;52.638;9.216;2023-04-01T05:40:47;0.63;;;0.43;;
32032;SDS011;31720;52.638;9.216;2023-04-01T05:43:48;0.50;;;0.50;;
32032;SDS011;31720;52.638;9.216;2023-04-01T05:46:49;0.60;;;0.50;;
32032;SDS011;31720;52.638;9.216;2023-04-01T05:49:51;1.42;;;0.32;;
32032;SDS011;31720;52.638;9.216;2023-04-01T05:52:52;0.50;;;0.30;;
32032;SDS011;31720;52.638;9.216;2023-04-01T05:55:55;0.30;;;0.30;;
32032;SDS011;31720;52.638;9.216;2023-04-01T05:58:56;0.70;;;0.47;;
32032;SDS011;31720;52.638;9.216;2023-04-01T06:01:58;2.17;;;0.75;;
32032;SDS011;31720;52.638;9.216;2023-04-01T06:05:02;1.45;;;0.50;;
32032;SDS011;31720;52.638;9.216;2023-04-01T06:08:12;1.00;;;0.50;;
32032;SDS011;31720;52.638;9.216;2023-04-01T06:11:19;0.40;;;0.40;;
32032;SDS011;31720;52.638;9.216;2023-04-01T06:14:32;0.25;;;0.25;;
32032;SDS011;31720;52.638;9.216;2023-04-01T06:17:46;0.30;;;0.30;;
32032;SDS011;31720;52.638;9.216;2023-04-01T06:20:58;2.35;;;0.40;;
32032;SDS011;31720;52.638;9.216;2023-04-01T06:24:13;0.40;;;0.30;;
32032;SDS011;31720;52.638;9.216;2023-04-01T06:27:33;0.30;;;0.30;;
32032;SDS011;31720;52.638;9.216;2023-04-01T06:30:46;4.95;;;0.57;;
32032;SDS011;31720;52.638;9.216;2023-04-01T06:34:01;3.00;;;0.43;;
32032;SDS011;31720;52.638;9.216;2023-04-01T06:37:16;0.30;;;0.30;;
32032;SDS011;31720;52.638;9.216;2023-04-01T06:40:35;0.53;;;0.37;;
32032;SDS011;31720;52.638;9.216;2023-04-01T06:43:56;0.43;;;0.43;;
32032;SDS011;31720;52.638;9.216;2023-04-01T06:47:09;0.77;;;0.40;;
32032;SDS011;31720;52.638;9.216;2023-04-01T06:50:24;0.35;;;0.35;;
32032;SDS011;31720;52.638;9.216;2023-04-01T06:53:31;1.10;;;0.77;;
32032;SDS011;31720;52.638;9.216;2023-04-01T06:56:39;0.40;;;0.35;;
32032;SDS011;31720;52.638;9.216;2023-04-01T06:59:44;0.35;;;0.35;;
32032;SDS011;31720;52.638;9.216;2023-04-01T07:02:47;1.15;;;0.52;;
32032;SDS011;31720;52.638;9.216;2023-04-01T07:05:59;0.55;;;0.50;;
32032;SDS011;31720;52.638;9.216;2023-04-01T07:09:05;2.20;;;0.70;;
32032;SDS011;31720;52.638;9.216;2023-04-01T07:12:10;1.65;;;0.60;;
32032;SDS011;31720;52.638;9.216;2023-04-01T07:15:22;2.88;;;0.63;;
32032;SDS011;31720;52.638;9.216;2023-04-01T07:18:29;1.73;;;0.60;;
32032;SDS011;31720;52.638;9.216;2023-04-01T07:21:34;0.50;;;0.40;;
32032;SDS011;31720;52.638;9.216;2023-04-01T07:24:41;1.65;;;0.60;;
32032;SDS011;31720;52.638;9.216;2023-04-01T07:27:45;1.02;;;0.80;;
32032;SDS011;31720;52.638;9.216;2023-04-01T07:30:51;4.22;;;0.73;;
32032;SDS011;31720;52.638;9.216;2023-04-01T07:34:01;1.02;;;0.60;;
32032;SDS011;31720;52.638;9.216;2023-04-01T07:37:11;0.95;;;0.30;;
32032;SDS011;31720;52.638;9.216;2023-04-01T07:40:21;0.32;;;0.32;;
32032;SDS011;31720;52.638;9.216;2023-04-01T07:43:42;0.63;;;0.47;;
32032;SDS011;31720;52.638;9.216;2023-04-01T07:46:58;5.30;;;0.63;;
32032;SDS011;31720;52.638;9.216;2023-04-01T07:50:09;1.35;;;0.60;;
32032;SDS011;31720;52.638;9.216;2023-04-01T07:53:19;3.03;;;0.65;;
32032;SDS011;31720;52.638;9.216;2023-04-01T07:56:27;0.40;;;0.40;;
32032;SDS011;31720;52.638;9.216;2023-04-01T07:59:33;2.05;;;0.50;;
32032;SDS011;31720;52.638;9.216;2023-04-01T08:05:53;4.15;;;0.60;;
32032;SDS011;31720;52.638;9.216;2023-04-01T08:08:59;0.70;;;0.50;;
32032;SDS011;31720;52.638;9.216;2023-04-01T08:12:09;0.82;;;0.50;;
32032;SDS011;31720;52.638;9.216;2023-04-01T08:15:21;2.88;;;0.90;;
32032;SDS011;31720;52.638;9.216;2023-04-01T08:18:31;2.75;;;0.73;;
32032;SDS011;31720;52.638;9.216;2023-04-01T08:21:41;2.22;;;0.43;;
32032;SDS011;31720;52.638;9.216;2023-04-01T08:24:45;0.32;;;0.32;;
32032;SDS011;31720;52.638;9.216;2023-04-01T08:27:51;0.40;;;0.40;;
32032;SDS011;31720;52.638;9.216;2023-04-01T08:30:58;0.75;;;0.60;;
32032;SDS011;31720;52.638;9.216;2023-04-01T08:34:07;0.38;;;0.30;;
32032;SDS011;31720;52.638;9.216;2023-04-01T08:37:14;0.55;;;0.50;;
32032;SDS011;31720;52.638;9.216;2023-04-01T08:40:26;0.20;;;0.20;;
32032;SDS011;31720;52.638;9.216;2023-04-01T08:43:48;0.70;;;0.50;;
32032;SDS011;31720;52.638;9.216;2023-04-01T08:47:09;0.83;;;0.60;;
32032;SDS011;31720;52.638;9.216;2023-04-01T08:50:42;1.77;;;0.60;;
32032;SDS011;31720;52.638;9.216;2023-04-01T08:54:08;0.80;;;0.70;;
32032;SDS011;31720;52.638;9.216;2023-04-01T08:57:33;0.60;;;0.60;;
32032;SDS011;31720;52.638;9.216;2023-04-01T09:00:43;0.40;;;0.35;;
32032;SDS011;31720;52.638;9.216;2023-04-01T09:04:04;0.45;;;0.30;;
32032;SDS011;31720;52.638;9.216;2023-04-01T09:07:25;0.43;;;0.30;;
32032;SDS011;31720;52.638;9.216;2023-04-01T09:10:44;0.40;;;0.40;;
32032;SDS011;31720;52.638;9.216;2023-04-01T09:17:49;0.82;;;0.47;;
32032;SDS011;31720;52.638;9.216;2023-04-01T09:21:14;3.17;;;0.65;;
32032;SDS011;31720;52.638;9.216;2023-04-01T09:24:32;0.40;;;0.40;;
32032;SDS011;31720;52.638;9.216;2023-04-01T09:27:43;0.43;;;0.30;;
32032;SDS011;31720;52.638;9.216;2023-04-01T09:34:25;0.40;;;0.40;;
32032;SDS011;31720;52.638;9.216;2023-04-01T09:37:34;1.45;;;0.40;;
32032;SDS011;31720;52.638;9.216;2023-04-01T09:40:41;0.63;;;0.32;;
32032;SDS011;31720;52.638;9.216;2023-04-01T09:43:55;0.10;;;0.10;;
32032;SDS011;31720;52.638;9.216;2023-04-01T09:47:06;1.60;;;0.28;;
32032;SDS011;31720;52.638;9.216;2023-04-01T09:50:21;0.15;;;0.15;;
32032;SDS011;31720;52.638;9.216;2023-04-01T09:53:36;0.20;;;0.20;;
32032;SDS011;31720;52.638;9.216;2023-04-01T09:56:56;0.35;;;0.22;;
32032;SDS011;31720;52.638;9.216;2023-04-01T10:00:32;0.28;;;0.22;;
32032;SDS011;31720;52.638;9.216;2023-04-01T10:04:08;0.25;;;0.25;;
32032;SDS011;31720;52.638;9.216;2023-04-01T10:07:30;2.20;;;0.65;;
32032;SDS011;31720;52.638;9.216;2023-04-01T10:18:37;1.52;;;0.40;;
32032;SDS011;31720;52.638;9.216;2023-04-01T10:21:59;0.85;;;0.40;;
32032;SDS011;31720;52.638;9.216;2023-04-01T10:25:18;0.38;;;0.28;;
32032;SDS011;31720;52.638;9.216;2023-04-01T10:28:38;1.00;;;0.15;;
32032;SDS011;31720;52.638;9.216;2023-04-01T10:32:05;0.47;;;0.32;;
32032;SDS011;31720;52.638;9.216;2023-04-01T10:38:59;1.65;;;0.65;;
32032;SDS011;31720;52.638;9.216;2023-04-01T10:46:11;0.43;;;0.20;;
32032;SDS011;31720;52.638;9.216;2023-04-01T10:50:06;0.20;;;0.20;;
32032;SDS011;31720;52.638;9.216;2023-04-01T10:53:33;0.28;;;0.20;;
32032;SDS011;31720;52.638;9.216;2023-04-01T10:56:42;1.38;;;0.50;;
32032;SDS011;31720;52.638;9.216;2023-04-01T11:03:23;0.30;;;0.30;;
32032;SDS011;31720;52.638;9.216;2023-04-01T11:10:59;0.28;;;0.28;;
32032;SDS011;31720;52.638;9.216;2023-04-01T11:14:34;0.30;;;0.30;;
32032;SDS011;31720;52.638;9.216;2023-04-01T11:25:05;0.55;;;0.52;;
32032;SDS011;31720;52.638;9.216;2023-04-01T11:28:35;2.38;;;0.50;;
32032;SDS011;31720;52.638;9.216;2023-04-01T11:31:53;0.80;;;0.60;;
32032;SDS011;31720;52.638;9.216;2023-04-01T11:35:02;0.30;;;0.30;;
32032;SDS011;31720;52.638;9.216;2023-04-01T11:38:26;2.17;;;0.63;;
32032;SDS011;31720;52.638;9.216;2023-04-01T11:41:45;0.70;;;0.40;;
32032;SDS011;31720;52.638;9.216;2023-04-01T11:44:53;1.48;;;0.40;;
32032;SDS011;31720;52.638;9.216;2023-04-01T11:51:40;0.90;;;0.35;;
32032;SDS011;31720;52.638;9.216;2023-04-01T11:55:02;1.00;;;0.32;;
32032;SDS011;31720;52.638;9.216;2023-04-01T11:58:27;0.30;;;0.30;;
32032;SDS011;31720;52.638;9.216;2023-04-01T12:01:43;0.40;;;0.40;;
32032;SDS011;31720;52.638;9.216;2023-04-01T12:04:58;1.23;;;0.73;;
32032;SDS011;31720;52.638;9.216;2023-04-01T12:11:39;2.20;;;1.67;;
32032;SDS011;31720;52.638;9.216;2023-04-01T12:14:52;1.02;;;0.90;;
32032;SDS011;31720;52.638;9.216;2023-04-01T12:18:03;0.50;;;0.50;;
32032;SDS011;31720;52.638;9.216;2023-04-01T12:21:17;0.35;;;0.35;;
32032;SDS011;31720;52.638;9.216;2023-04-01T12:24:33;0.35;;;0.35;;
32032;SDS011;31720;52.638;9.216;2023-04-01T12:27:45;0.30;;;0.30;;
32032;SDS011;31720;52.638;9.216;2023-04-01T12:31:02;0.30;;;0.30;;
32032;SDS011;31720;52.638;9.216;2023-04-01T12:34:31;0.85;;;0.60;;
32032;SDS011;31720;52.638;9.216;2023-04-01T12:37:45;0.85;;;0.73;;
32032;SDS011;31720;52.638;9.216;2023-04-01T12:40:57;0.60;;;0.47;;
32032;SDS011;31720;52.638;9.216;2023-04-01T12:44:15;0.70;;;0.50;;
32032;SDS011;31720;52.638;9.216;2023-04-01T12:47:36;0.88;;;0.63;;
32032;SDS011;31720;52.638;9.216;2023-04-01T12:51:03;0.63;;;0.63;;
32032;SDS011;31720;52.638;9.216;2023-04-01T12:54:17;0.70;;;0.70;;
32032;SDS011;31720;52.638;9.216;2023-04-01T13:01:19;0.57;;;0.50;;
32032;SDS011;31720;52.638;9.216;2023-04-01T13:04:53;0.30;;;0.30;;
32032;SDS011;31720;52.638;9.216;2023-04-01T13:08:08;0.50;;;0.50;;
32032;SDS011;31720;52.638;9.216;2023-04-01T13:11:20;0.47;;;0.40;;
32032;SDS011;31720;52.638;9.216;2023-04-01T13:14:40;0.93;;;0.50;;
32032;SDS011;31720;52.638;9.216;2023-04-01T13:18:10;0.73;;;0.50;;
32032;SDS011;31720;52.638;9.216;2023-04-01T13:21:20;1.50;;;1.40;;
32032;SDS011;31720;52.638;9.216;2023-04-01T13:24:38;0.32;;;0.32;;
32032;SDS011;31720;52.638;9.216;2023-04-01T13:27:45;0.60;;;0.45;;
32032;SDS011;31720;52.638;9.216;2023-04-01T13:30:54;0.35;;;0.35;;
32032;SDS011;31720;52.638;9.216;2023-04-01T13:34:09;0.40;;;0.40;;
32032;SDS011;31720;52.638;9.216;2023-04-01T13:37:27;0.40;;;0.40;;
32032;SDS011;31720;52.638;9.216;2023-04-01T13:40:40;0.30;;;0.30;;
32032;SDS011;31720;52.638;9.216;2023-04-01T13:43:52;0.30;;;0.30;;
32032;SDS011;31720;52.638;9.216;2023-04-01T13:47:07;0.88;;;0.55;;
32032;SDS011;31720;52.638;9.216;2023-04-01T13:50:23;0.32;;;0.32;;
32032;SDS011;31720;52.638;9.216;2023-04-01T13:57:05;1.00;;;0.35;;
32032;SDS011;31720;52.638;9.216;2023-04-01T14:00:32;0.70;;;0.47;;
32032;SDS011;31720;52.638;9.216;2023-04-01T14:03:50;0.45;;;0.40;;
32032;SDS011;31720;52.638;9.216;2023-04-01T14:07:25;0.50;;;0.50;;
32032;SDS011;31720;52.638;9.216;2023-04-01T14:10:40;0.40;;;0.40;;
32032;SDS011;31720;52.638;9.216;2023-04-01T14:13:50;0.30;;;0.30;;
32032;SDS011;31720;52.638;9.216;2023-04-01T14:17:03;0.28;;;0.28;;
32032;SDS011;31720;52.638;9.216;2023-04-01T14:20:32;0.40;;;0.40;;
32032;SDS011;31720;52.638;9.216;2023-04-01T14:23:53;0.77;;;0.60;;
32032;SDS011;31720;52.638;9.216;2023-04-01T14:34:24;1.35;;;0.85;;
32032;SDS011;31720;52.638;9.216;2023-04-01T14:37:40;1.30;;;1.20;;
32032;SDS011;31720;52.638;9.216;2023-04-01T14:40:52;1.33;;;1.23;;
32032;SDS011;31720;52.638;9.216;2023-04-01T14:44:04;2.03;;;1.67;;
32032;SDS011;31720;52.638;9.216;2023-04-01T14:50:45;2.15;;;1.27;;
32032;SDS011;31720;52.638;9.216;2023-04-01T14:53:53;1.55;;;1.05;;
32032;SDS011;31720;52.638;9.216;2023-04-01T14:57:04;0.43;;;0.38;;
32032;SDS011;31720;52.638;9.216;2023-04-01T15:00:12;0.90;;;0.40;;
32032;SDS011;31720;52.638;9.216;2023-04-01T15:03:17;0.45;;;0.40;;
32032;SDS011;31720;52.638;9.216;2023-04-01T15:06:35;0.50;;;0.50;;
32032;SDS011;31720;52.638;9.216;2023-04-01T15:09:50;0.38;;;0.30;;
32032;SDS011;31720;52.638;9.216;2023-04-01T15:12:59;3.67;;;0.40;;
32032;SDS011;31720;52.638;9.216;2023-04-01T15:16:13;0.30;;;0.30;;
32032;SDS011;31720;52.638;9.216;2023-04-01T15:19:28;0.43;;;0.40;;
32032;SDS011;31720;52.638;9.216;2023-04-01T15:22:44;0.65;;;0.30;;
32032;SDS011;31720;52.638;9.216;2023-04-01T15:26:05;0.30;;;0.30;;
32032;SDS011;31720;52.638;9.216;2023-04-01T15:33:03;0.52;;;0.43;;
32032;SDS011;31720;52.638;9.216;2023-04-01T15:36:16;0.25;;;0.25;;
32032;SDS011;31720;52.638;9.216;2023-04-01T15:39:30;0.32;;;0.32;;
32032;SDS011;31720;52.638;9.216;2023-04-01T15:42:54;0.40;;;0.40;;
32032;SDS011;31720;52.638;9.216;2023-04-01T15:46:14;1.08;;;0.60;;
32032;SDS011;31720;52.638;9.216;2023-04-01T15:49:37;0.60;;;0.60;;
32032;SDS011;31720;52.638;9.216;2023-04-01T15:52:43;3.30;;;0.50;;
32032;SDS011;31720;52.638;9.216;2023-04-01T15:55:59;0.30;;;0.30;;
32032;SDS011;31720;52.638;9.216;2023-04-01T15:59:19;0.20;;;0.20;;
32032;SDS011;31720;52.638;9.216;2023-04-01T16:02:31;0.30;;;0.30;;
32032;SDS011;31720;52.638;9.216;2023-04-01T16:05:37;0.52;;;0.40;;
32032;SDS011;31720;52.638;9.216;2023-04-01T16:08:56;0.55;;;0.55;;
32032;SDS011;31720;52.638;9.216;2023-04-01T16:12:15;0.52;;;0.50;;
32032;SDS011;31720;52.638;9.216;2023-04-01T16:15:21;0.50;;;0.50;;
32032;SDS011;31720;52.638;9.216;2023-04-01T16:18:34;0.60;;;0.50;;
32032;SDS011;31720;52.638;9.216;2023-04-01T16:21:48;2.58;;;1.48;;
32032;SDS011;31720;52.638;9.216;2023-04-01T16:24:53;8.80;;;3.13;;
32032;SDS011;31720;52.638;9.216;2023-04-01T16:28:08;7.82;;;3.15;;
32032;SDS011;31720;52.638;9.216;2023-04-01T16:31:25;4.28;;;2.63;;
32032;SDS011;31720;52.638;9.216;2023-04-01T16:34:34;7.63;;;2.95;;
32032;SDS011;31720;52.638;9.216;2023-04-01T16:37:43;2.22;;;1.20;;
32032;SDS011;31720;52.638;9.216;2023-04-01T16:40:52;3.10;;;1.38;;
32032;SDS011;31720;52.638;9.216;2023-04-01T16:44:10;11.93;;;5.50;;
32032;SDS011;31720;52.638;9.216;2023-04-01T16:47:19;17.13;;;5.80;;
32032;SDS011;31720;52.638;9.216;2023-04-01T16:50:24;5.28;;;2.47;;
32032;SDS011;31720;52.638;9.216;2023-04-01T16:53:34;6.38;;;2.85;;
32032;SDS011;31720;52.638;9.216;2023-04-01T16:56:42;5.55;;;2.58;;
32032;SDS011;31720;52.638;9.216;2023-04-01T16:59:53;3.58;;;2.10;;
32032;SDS011;31720;52.638;9.216;2023-04-01T17:03:04;6.68;;;2.63;;
32032;SDS011;31720;52.638;9.216;2023-04-01T17:06:19;1.90;;;1.42;;
32032;SDS011;31720;52.638;9.216;2023-04-01T17:09:33;2.55;;;1.48;;
32032;SDS011;31720;52.638;9.216;2023-04-01T17:13:03;3.22;;;2.00;;
32032;SDS011;31720;52.638;9.216;2023-04-01T17:16:23;7.28;;;2.85;;
32032;SDS011;31720;52.638;9.216;2023-04-01T17:19:33;4.55;;;1.80;;
32032;SDS011;31720;52.638;9.216;2023-04-01T17:22:44;8.73;;;4.32;;
32032;SDS011;31720;52.638;9.216;2023-04-01T17:26:00;4.10;;;1.90;;
32032;SDS011;31720;52.638;9.216;2023-04-01T17:29:10;3.38;;;1.42;;
32032;SDS011;31720;52.638;9.216;2023-04-01T17:32:22;11.38;;;4.03;;
32032;SDS011;31720;52.638;9.216;2023-04-01T17:35:37;13.45;;;5.18;;
32032;SDS011;31720;52.638;9.216;2023-04-01T17:38:56;6.78;;;3.33;;
32032;SDS011;31720;52.638;9.216;2023-04-01T17:42:12;3.50;;;2.30;;
32032;SDS011;31720;52.638;9.216;2023-04-01T17:45:20;2.72;;;1.40;;
32032;SDS011;31720;52.638;9.216;2023-04-01T17:48:30;0.80;;;0.80;;
32032;SDS011;31720;52.638;9.216;2023-04-01T17:51:43;1.15;;;1.00;;
32032;SDS011;31720;52.638;9.216;2023-04-01T17:54:53;2.72;;;1.35;;
32032;SDS011;31720;52.638;9.216;2023-04-01T17:58:02;2.92;;;1.73;;
32032;SDS011;31720;52.638;9.216;2023-04-01T18:01:10;1.00;;;0.75;;
32032;SDS011;31720;52.638;9.216;2023-04-01T18:04:25;3.28;;;2.08;;
32032;SDS011;31720;52.638;9.216;2023-04-01T18:07:46;2.40;;;1.10;;
32032;SDS011;31720;52.638;9.216;2023-04-01T18:11:00;1.08;;;0.73;;
32032;SDS011;31720;52.638;9.216;2023-04-01T18:14:24;1.08;;;0.70;;
32032;SDS011;31720;52.638;9.216;2023-04-01T18:17:48;1.63;;;1.25;;
32032;SDS011;31720;52.638;9.216;2023-04-01T18:21:01;2.17;;;1.27;;
32032;SDS011;31720;52.638;9.216;2023-04-01T18:24:11;1.48;;;0.77;;
32032;SDS011;31720;52.638;9.216;2023-04-01T18:27:21;10.18;;;4.35;;
32032;SDS011;31720;52.638;9.216;2023-04-01T18:30:26;5.97;;;2.92;;
32032;SDS011;31720;52.638;9.216;2023-04-01T18:33:31;6.75;;;3.10;;
32032;SDS011;31720;52.638;9.216;2023-04-01T18:36:41;8.88;;;3.88;;
32032;SDS011;31720;52.638;9.216;2023-04-01T18:39:49;3.05;;;1.42;;
32032;SDS011;31720;52.638;9.216;2023-04-01T18:42:55;5.00;;;1.27;;
32032;SDS011;31720;52.638;9.216;2023-04-01T18:46:12;1.75;;;0.98;;
32032;SDS011;31720;52.638;9.216;2023-04-01T18:49:21;3.03;;;0.70;;
32032;SDS011;31720;52.638;9.216;2023-04-01T18:52:28;0.88;;;0.88;;
32032;SDS011;31720;52.638;9.216;2023-04-01T18:55:37;2.13;;;1.20;;
32032;SDS011;31720;52.638;9.216;2023-04-01T18:58:45;2.70;;;1.50;;
32032;SDS011;31720;52.638;9.216;2023-04-01T19:01:52;2.33;;;1.70;;
32032;SDS011;31720;52.638;9.216;2023-04-01T19:05:04;5.00;;;2.03;;
32032;SDS011;31720;52.638;9.216;2023-04-01T19:08:17;1.63;;;1.13;;
32032;SDS011;31720;52.638;9.216;2023-04-01T19:11:26;3.08;;;1.50;;
32032;SDS011;31720;52.638;9.216;2023-04-01T19:14:46;2.47;;;1.00;;
32032;SDS011;31720;52.638;9.216;2023-04-01T19:18:06;2.40;;;1.15;;
32032;SDS011;31720;52.638;9.216;2023-04-01T19:21:25;1.25;;;0.90;;
32032;SDS011;31720;52.638;9.216;2023-04-01T19:28:21;2.28;;;1.33;;
32032;SDS011;31720;52.638;9.216;2023-04-01T19:31:34;2.88;;;2.13;;
32032;SDS011;31720;52.638;9.216;2023-04-01T19:34:51;3.47;;;3.03;;
32032;SDS011;31720;52.638;9.216;2023-04-01T19:37:58;2.13;;;1.48;;
32032;SDS011;31720;52.638;9.216;2023-04-01T19:41:12;2.70;;;1.70;;
32032;SDS011;31720;52.638;9.216;2023-04-01T19:44:29;3.95;;;1.58;;
32032;SDS011;31720;52.638;9.216;2023-04-01T19:47:39;4.28;;;2.38;;
32032;SDS011;31720;52.638;9.216;2023-04-01T19:50:55;3.38;;;2.38;;
32032;SDS011;31720;52.638;9.216;2023-04-01T19:54:04;1.98;;;1.35;;
32032;SDS011;31720;52.638;9.216;2023-04-01T19:57:23;3.38;;;1.80;;
32032;SDS011;31720;52.638;9.216;2023-04-01T20:00:31;3.03;;;1.50;;
32032;SDS011;31720;52.638;9.216;2023-04-01T20:03:39;4.40;;;1.23;;
32032;SDS011;31720;52.638;9.216;2023-04-01T20:06:46;1.75;;;1.40;;
32032;SDS011;31720;52.638;9.216;2023-04-01T20:09:57;5.63;;;1.75;;
32032;SDS011;31720;52.638;9.216;2023-04-01T20:13:09;3.67;;;1.95;;
32032;SDS011;31720;52.638;9.216;2023-04-01T20:16:17;4.55;;;1.83;;
32032;SDS011;31720;52.638;9.216;2023-04-01T20:19:27;6.05;;;2.08;;
32032;SDS011;31720;52.638;9.216;2023-04-01T20:25:57;2.03;;;1.35;;
32032;SDS011;31720;52.638;9.216;2023-04-01T20:29:12;5.50;;;2.00;;